createdAt,value
2018-05-03T00:00:39.218Z,13.21
2018-05-03T00:03:07.084Z,13.16
2018-05-03T00:05:34.952Z,13.18
2018-05-03T00:08:02.821Z,13.22
2018-05-03T00:10:30.688Z,13.18
2018-05-03T00:12:58.399Z,12.96
2018-05-03T00:15:26.215Z,12.95
2018-05-03T00:17:53.937Z,13.05
2018-05-03T00:20:21.743Z,13.10
2018-05-03T00:22:49.616Z,12.96
2018-05-03T00:25:17.480Z,12.96
2018-05-03T00:27:45.223Z,13.00
2018-05-03T00:30:13.006Z,12.96
2018-05-03T00:32:40.771Z,13.00
2018-05-03T00:35:08.641Z,12.88
2018-05-03T00:37:36.339Z,12.59
2018-05-03T00:40:04.167Z,12.72
2018-05-03T00:42:31.870Z,12.73
2018-05-03T00:44:59.694Z,12.60
2018-05-03T00:47:27.464Z,12.66
2018-05-03T00:49:55.173Z,12.68
2018-05-03T00:52:22.992Z,12.55
2018-05-03T00:54:50.753Z,12.71
2018-05-03T00:57:18.619Z,12.54
2018-05-03T00:59:46.386Z,12.70
2018-05-03T01:02:14.047Z,12.75
2018-05-03T01:04:41.700Z,12.78
2018-05-03T01:07:09.476Z,12.74
2018-05-03T01:09:37.333Z,12.71
2018-05-03T01:12:05.003Z,12.79
2018-05-03T01:14:32.766Z,12.80
2018-05-03T01:17:00.481Z,12.80
2018-05-03T01:19:28.397Z,12.79
2018-05-03T01:21:56.213Z,12.80
2018-05-03T01:24:23.925Z,12.81
2018-05-03T01:26:51.795Z,12.79
2018-05-03T01:29:19.767Z,12.80
2018-05-03T01:31:47.535Z,12.73
2018-05-03T01:34:15.379Z,12.76
2018-05-03T01:36:43.162Z,12.76
2018-05-03T01:39:11.001Z,12.78
2018-05-03T01:41:38.746Z,12.74
2018-05-03T01:44:06.562Z,12.78
2018-05-03T01:46:34.578Z,12.77
2018-05-03T01:49:02.297Z,12.76
2018-05-03T01:51:30.056Z,12.72
2018-05-03T01:53:57.905Z,12.70
2018-05-03T01:56:25.599Z,12.67
2018-05-03T01:58:53.451Z,12.66
2018-05-03T02:01:21.417Z,12.61
2018-05-03T02:03:49.190Z,12.57
2018-05-03T02:06:16.948Z,12.59
2018-05-03T02:08:44.678Z,12.58
2018-05-03T02:11:12.421Z,12.54
2018-05-03T02:13:40.242Z,12.54
2018-05-03T02:16:08.006Z,12.41
2018-05-03T02:18:35.745Z,12.34
2018-05-03T02:21:03.488Z,12.23
2018-05-03T02:23:31.190Z,12.26
2018-05-03T02:25:59.062Z,12.34
2018-05-03T02:28:26.894Z,12.27
2018-05-03T02:30:54.594Z,12.13
2018-05-03T02:33:22.251Z,12.30
2018-05-03T02:35:50.112Z,12.29
2018-05-03T02:38:17.979Z,12.31
2018-05-03T02:40:45.694Z,12.35
2018-05-03T02:43:13.517Z,12.26
2018-05-03T02:45:41.276Z,12.34
2018-05-03T02:48:09.149Z,12.34
2018-05-03T02:50:37.019Z,12.38
2018-05-03T02:53:04.779Z,12.34
2018-05-03T02:55:32.544Z,12.27
2018-05-03T02:58:17.717Z,12.23
2018-05-03T03:01:03.096Z,12.18
2018-05-03T03:03:48.221Z,12.14
2018-05-03T03:06:33.609Z,11.56
2018-05-03T03:09:18.925Z,11.63
2018-05-03T03:12:02.351Z,11.46
2018-05-03T03:14:47.829Z,11.42
2018-05-03T03:21:01.133Z,11.58
2018-05-03T03:23:46.403Z,11.58
2018-05-03T03:29:57.865Z,11.54
2018-05-03T03:32:37.521Z,11.58
2018-05-03T03:38:37.346Z,11.48
2018-05-03T03:41:17.091Z,11.51
2018-05-03T03:43:56.631Z,11.53
2018-05-03T03:46:24.293Z,11.48
2018-05-03T03:48:52.163Z,11.53
2018-05-03T03:51:20.027Z,11.59
2018-05-03T03:53:47.896Z,11.48
2018-05-03T03:56:15.559Z,11.44
2018-05-03T03:58:43.317Z,11.36
2018-05-03T04:01:11.087Z,11.11
2018-05-03T04:03:38.896Z,10.93
2018-05-03T04:06:06.716Z,11.11
2018-05-03T04:08:34.584Z,11.19
2018-05-03T04:11:02.246Z,11.18
2018-05-03T04:13:30.114Z,11.23
2018-05-03T04:15:57.779Z,11.03
2018-05-03T04:18:37.625Z,10.94
2018-05-03T04:21:17.163Z,11.03
2018-05-03T04:24:11.548Z,11.09
2018-05-03T04:26:39.421Z,11.21
2018-05-03T04:29:07.191Z,11.27
2018-05-03T04:31:34.947Z,11.33
2018-05-03T04:34:02.762Z,11.38
2018-05-03T04:36:30.579Z,11.43
2018-05-03T04:38:58.230Z,11.51
2018-05-03T04:41:25.966Z,11.59
2018-05-03T04:43:53.703Z,11.63
2018-05-03T04:46:21.397Z,11.68
2018-05-03T04:48:49.087Z,11.79
2018-05-03T04:51:16.932Z,11.80
2018-05-03T04:53:44.694Z,11.85
2018-05-03T04:56:12.388Z,11.98
2018-05-03T04:58:40.149Z,12.01
2018-05-03T05:01:07.920Z,12.09
2018-05-03T05:03:35.766Z,12.13
2018-05-03T05:06:03.442Z,12.25
2018-05-03T05:08:31.210Z,12.31
2018-05-03T05:10:58.933Z,12.44
2018-05-03T05:13:26.738Z,12.49
2018-05-03T05:15:54.567Z,12.61
2018-05-03T05:18:22.369Z,12.65
2018-05-03T05:20:50.237Z,12.71
2018-05-03T05:23:18.001Z,12.78
2018-05-03T05:25:45.868Z,12.91
2018-05-03T05:28:13.530Z,13.01
2018-05-03T05:30:41.406Z,13.06
2018-05-03T05:33:09.270Z,13.25
2018-05-03T05:35:37.134Z,13.48
2018-05-03T05:38:04.796Z,13.53
2018-05-03T05:40:32.660Z,13.78
2018-05-03T05:43:00.529Z,14.20
2018-05-03T05:45:28.339Z,14.41
2018-05-03T05:47:56.158Z,14.49
2018-05-03T05:50:23.976Z,14.79
2018-05-03T05:52:51.789Z,15.36
2018-05-03T05:55:19.656Z,15.48
2018-05-03T05:57:47.472Z,15.56
2018-05-03T06:00:15.341Z,15.77
2018-05-03T06:02:43.052Z,15.79
2018-05-03T06:05:10.816Z,16.34
2018-05-03T06:07:38.470Z,18.21
2018-05-03T06:10:06.345Z,18.25
2018-05-03T06:12:34.217Z,17.40
2018-05-03T06:15:02.082Z,17.21
2018-05-03T06:17:29.806Z,16.82
2018-05-03T06:19:57.550Z,16.96
2018-05-03T06:22:25.373Z,16.75
2018-05-03T06:24:53.154Z,16.84
2018-05-03T06:27:20.898Z,16.78
2018-05-03T06:29:48.571Z,17.59
2018-05-03T06:32:16.432Z,17.41
2018-05-03T06:34:44.297Z,17.18
2018-05-03T06:37:12.260Z,17.27
2018-05-03T06:39:40.214Z,17.00
2018-05-03T06:42:08.239Z,17.32
2018-05-03T06:44:36.187Z,17.86
2018-05-03T06:47:04.048Z,19.47
2018-05-03T06:49:32.074Z,20.65
2018-05-03T06:51:59.887Z,21.36
2018-05-03T06:54:27.707Z,21.66
2018-05-03T06:56:55.515Z,22.41
2018-05-03T06:59:23.339Z,22.75
2018-05-03T07:01:51.142Z,22.79
2018-05-03T07:04:19.014Z,22.24
2018-05-03T07:06:46.674Z,22.80
2018-05-03T07:09:14.437Z,23.12
2018-05-03T07:11:42.405Z,22.33
2018-05-03T07:14:10.169Z,20.20
2018-05-03T07:16:37.985Z,20.14
2018-05-03T07:19:05.800Z,19.88
2018-05-03T07:21:33.565Z,19.81
2018-05-03T07:24:01.331Z,20.35
2018-05-03T07:26:29.093Z,21.26
2018-05-03T07:28:56.861Z,21.14
2018-05-03T07:31:24.827Z,21.98
2018-05-03T07:33:52.483Z,21.59
2018-05-03T07:36:20.253Z,20.86
2018-05-03T07:38:47.982Z,20.69
2018-05-03T07:41:15.782Z,20.34
2018-05-03T07:43:43.490Z,19.97
2018-05-03T07:46:11.204Z,20.78
2018-05-03T07:48:38.927Z,21.02
2018-05-03T07:51:06.632Z,20.67
2018-05-03T07:53:34.400Z,20.67
2018-05-03T07:56:02.367Z,21.61
2018-05-03T07:58:30.300Z,21.24
2018-05-03T08:00:57.999Z,20.07
2018-05-03T08:03:25.769Z,19.85
2018-05-03T08:05:53.432Z,20.03
2018-05-03T08:08:21.193Z,20.14
2018-05-03T08:10:49.061Z,20.55
2018-05-03T08:13:16.793Z,20.86
2018-05-03T08:15:44.588Z,20.89
2018-05-03T08:18:12.403Z,20.16
2018-05-03T08:20:40.170Z,20.17
2018-05-03T08:23:07.983Z,20.37
2018-05-03T08:25:35.850Z,19.94
2018-05-03T08:28:03.616Z,20.09
2018-05-03T08:30:31.484Z,20.30
2018-05-03T08:32:59.141Z,20.41
2018-05-03T08:35:26.906Z,20.42
2018-05-03T08:37:54.573Z,20.48
2018-05-03T08:40:22.438Z,20.78
2018-05-03T08:42:50.508Z,20.70
2018-05-03T08:45:18.374Z,21.37
2018-05-03T08:47:46.082Z,21.52
2018-05-03T08:50:13.904Z,21.84
2018-05-03T08:52:41.667Z,22.51
2018-05-03T08:55:09.428Z,22.32
2018-05-03T08:57:37.196Z,22.64
2018-05-03T09:00:05.211Z,21.13
2018-05-03T09:02:32.935Z,20.95
2018-05-03T09:05:00.603Z,21.63
2018-05-03T09:07:28.473Z,21.48
2018-05-03T09:09:56.280Z,20.97
2018-05-03T09:12:23.989Z,20.76
2018-05-03T09:14:51.650Z,20.76
2018-05-03T09:17:19.415Z,22.10
2018-05-03T09:19:47.180Z,21.54
2018-05-03T09:22:15.046Z,21.38
2018-05-03T09:24:42.805Z,22.79
2018-05-03T09:27:10.577Z,23.89
2018-05-03T09:29:38.295Z,24.03
2018-05-03T09:32:06.058Z,23.83
2018-05-03T09:34:33.870Z,24.13
2018-05-03T09:37:01.749Z,22.54
2018-05-03T09:39:29.500Z,22.49
2018-05-03T09:41:57.366Z,21.92
2018-05-03T09:44:25.036Z,21.74
2018-05-03T09:46:52.999Z,21.61
2018-05-03T09:49:20.761Z,21.21
2018-05-03T09:51:48.493Z,21.63
2018-05-03T09:54:16.260Z,22.00
2018-05-03T09:56:44.056Z,22.18
2018-05-03T09:59:11.819Z,22.45
2018-05-03T10:01:39.585Z,21.82
2018-05-03T10:04:07.452Z,22.20
2018-05-03T10:06:35.216Z,22.15
2018-05-03T10:09:03.082Z,22.14
2018-05-03T10:11:30.845Z,22.07
2018-05-03T10:13:58.715Z,22.53
2018-05-03T10:16:26.480Z,22.71
2018-05-03T10:18:54.142Z,22.84
2018-05-03T10:21:21.905Z,22.38
2018-05-03T10:23:49.634Z,22.66
2018-05-03T10:26:17.435Z,22.97
2018-05-03T10:28:45.403Z,22.66
2018-05-03T10:31:13.169Z,22.49
2018-05-03T10:33:40.783Z,22.87
2018-05-03T10:36:08.804Z,22.60
2018-05-03T10:38:36.461Z,23.14
2018-05-03T10:41:04.230Z,22.88
2018-05-03T10:43:32.085Z,23.30
2018-05-03T10:45:59.813Z,23.57
2018-05-03T10:48:27.621Z,23.22
2018-05-03T10:50:55.387Z,22.60
2018-05-03T10:53:23.050Z,22.48
2018-05-03T10:55:50.712Z,22.81
2018-05-03T10:58:18.436Z,23.45
2018-05-03T11:00:46.132Z,23.64
2018-05-03T11:03:14.003Z,23.63
2018-05-03T11:05:41.973Z,23.66
2018-05-03T11:08:09.750Z,23.78
2018-05-03T11:10:37.506Z,23.13
2018-05-03T11:13:05.266Z,22.70
2018-05-03T11:15:32.990Z,22.23
2018-05-03T11:18:00.689Z,22.74
2018-05-03T11:20:28.354Z,22.99
2018-05-03T11:22:56.066Z,23.18
2018-05-03T11:25:23.985Z,23.50
2018-05-03T11:27:51.750Z,23.67
2018-05-03T11:30:19.493Z,23.93
2018-05-03T11:32:47.279Z,24.32
2018-05-03T11:35:15.254Z,24.11
2018-05-03T11:37:43.321Z,24.34
2018-05-03T11:40:11.085Z,24.40
2018-05-03T11:42:38.765Z,24.53
2018-05-03T11:45:06.511Z,24.42
2018-05-03T11:47:34.166Z,24.76
2018-05-03T11:50:01.939Z,24.89
2018-05-03T11:52:29.801Z,24.98
2018-05-03T11:54:57.570Z,24.42
2018-05-03T11:57:25.426Z,24.60
2018-05-03T11:59:53.100Z,25.02
2018-05-03T12:02:20.904Z,24.90
2018-05-03T12:04:48.528Z,25.34
2018-05-03T12:07:16.290Z,25.35
2018-05-03T12:09:44.158Z,25.31
2018-05-03T12:12:12.009Z,25.13
2018-05-03T12:14:39.787Z,24.80
2018-05-03T12:17:07.489Z,25.24
2018-05-03T12:19:35.316Z,25.51
2018-05-03T12:22:03.080Z,25.13
2018-05-03T12:24:31.018Z,24.92
2018-05-03T12:26:58.715Z,25.38
2018-05-03T12:29:26.374Z,25.12
2018-05-03T12:31:54.138Z,25.37
2018-05-03T12:34:21.903Z,25.62
2018-05-03T12:36:49.670Z,25.62
2018-05-03T12:39:17.533Z,25.62
2018-05-03T12:41:45.303Z,26.17
2018-05-03T12:44:13.066Z,26.15
2018-05-03T12:46:40.828Z,26.01
2018-05-03T12:49:08.596Z,25.73
2018-05-03T12:51:36.253Z,25.42
2018-05-03T12:54:04.019Z,25.78
2018-05-03T12:56:31.784Z,25.63
2018-05-03T12:58:59.557Z,26.12
2018-05-03T13:01:27.519Z,26.13
2018-05-03T13:03:55.386Z,26.46
2018-05-03T13:06:23.151Z,26.44
2018-05-03T13:08:50.915Z,26.48
2018-05-03T13:11:18.678Z,26.21
2018-05-03T13:13:46.341Z,26.16
2018-05-03T13:16:14.211Z,26.36
2018-05-03T13:18:41.869Z,26.52
2018-05-03T13:21:10.611Z,26.54
2018-05-03T13:23:38.477Z,26.52
2018-05-03T13:26:06.180Z,26.53
2018-05-03T13:28:33.913Z,26.53
2018-05-03T13:31:01.653Z,25.99
2018-05-03T13:33:29.468Z,26.27
2018-05-03T13:35:57.110Z,26.08
2018-05-03T13:38:24.909Z,25.44
2018-05-03T13:40:52.671Z,25.63
2018-05-03T13:43:20.435Z,25.62
2018-05-03T13:45:48.302Z,26.14
2018-05-03T13:48:16.064Z,26.30
2018-05-03T13:50:44.036Z,25.07
2018-05-03T13:53:11.689Z,25.45
2018-05-03T13:55:39.456Z,25.58
2018-05-03T13:58:07.125Z,25.43
2018-05-03T14:00:34.790Z,25.77
2018-05-03T14:03:02.601Z,25.85
2018-05-03T14:05:30.419Z,25.29
2018-05-03T14:07:58.286Z,25.24
2018-05-03T14:10:25.946Z,25.34
2018-05-03T14:12:53.782Z,25.04
2018-05-03T14:15:21.477Z,25.36
2018-05-03T14:17:49.345Z,25.33
2018-05-03T14:20:17.006Z,25.61
2018-05-03T14:22:44.712Z,24.13
2018-05-03T14:25:12.432Z,23.74
2018-05-03T14:27:40.096Z,25.15
2018-05-03T14:30:07.861Z,25.96
2018-05-03T14:32:35.626Z,26.18
2018-05-03T14:35:03.392Z,25.87
2018-05-03T14:37:31.213Z,26.05
2018-05-03T14:39:59.021Z,26.25
2018-05-03T14:42:26.787Z,26.52
2018-05-03T14:44:54.451Z,25.66
2018-05-03T14:47:22.343Z,25.33
2018-05-03T14:49:49.978Z,24.69
2018-05-03T14:52:17.847Z,23.77
2018-05-03T14:54:45.810Z,23.89
2018-05-03T14:57:13.472Z,24.15
2018-05-03T14:59:41.339Z,24.18
2018-05-03T15:02:09.106Z,24.30
2018-05-03T15:04:36.867Z,24.73
2018-05-03T15:07:04.592Z,25.44
2018-05-03T15:09:32.397Z,25.54
2018-05-03T15:12:00.366Z,25.85
2018-05-03T15:14:28.233Z,25.66
2018-05-03T15:16:55.960Z,25.82
2018-05-03T15:19:23.659Z,26.03
2018-05-03T15:21:51.410Z,25.54
2018-05-03T15:24:19.127Z,25.59
2018-05-03T15:26:46.850Z,26.10
2018-05-03T15:29:14.614Z,25.99
2018-05-03T15:31:42.379Z,25.32
2018-05-03T15:34:10.146Z,25.49
2018-05-03T15:36:38.005Z,25.44
2018-05-03T15:39:05.982Z,26.04
2018-05-03T15:41:33.637Z,25.11
2018-05-03T15:44:01.411Z,24.33
2018-05-03T15:46:29.479Z,24.87
2018-05-03T15:48:57.143Z,23.49
2018-05-03T15:51:24.904Z,23.78
2018-05-03T15:53:52.641Z,24.94
2018-05-03T15:56:20.388Z,24.79
2018-05-03T15:58:48.099Z,25.86
2018-05-03T16:01:15.860Z,24.72
2018-05-03T16:03:43.515Z,25.15
2018-05-03T16:06:11.276Z,24.81
2018-05-03T16:08:39.051Z,25.15
2018-05-03T16:11:06.918Z,23.31
2018-05-03T16:13:34.682Z,23.83
2018-05-03T16:16:02.446Z,24.81
2018-05-03T16:18:30.211Z,25.08
2018-05-03T16:20:57.987Z,25.34
2018-05-03T16:23:25.638Z,25.07
2018-05-03T16:25:53.505Z,25.15
2018-05-03T16:28:21.168Z,24.77
2018-05-03T16:30:49.034Z,24.40
2018-05-03T16:33:16.694Z,24.14
2018-05-03T16:35:44.557Z,23.86
2018-05-03T16:38:12.224Z,23.49
2018-05-03T16:40:39.953Z,23.16
2018-05-03T16:43:07.756Z,23.42
2018-05-03T16:45:35.481Z,23.04
2018-05-03T16:48:03.283Z,23.08
2018-05-03T16:50:31.048Z,23.10
2018-05-03T16:52:58.916Z,22.55
2018-05-03T16:55:26.640Z,22.33
2018-05-03T16:57:54.443Z,22.32
2018-05-03T17:00:22.208Z,22.21
2018-05-03T17:02:50.018Z,22.07
2018-05-03T17:05:17.945Z,21.61
2018-05-03T17:07:45.876Z,21.72
2018-05-03T17:10:13.678Z,21.72
2018-05-03T17:12:41.543Z,21.56
2018-05-03T17:15:09.308Z,21.47
2018-05-03T17:17:37.071Z,21.51
2018-05-03T17:20:04.785Z,21.34
2018-05-03T17:22:32.556Z,21.12
2018-05-03T17:25:00.363Z,20.77
2018-05-03T17:27:28.231Z,20.79
2018-05-03T17:29:55.996Z,20.79
2018-05-03T17:32:23.824Z,20.77
2018-05-03T17:34:51.627Z,20.67
2018-05-03T17:37:19.392Z,20.67
2018-05-03T17:39:47.157Z,20.85
2018-05-03T17:42:14.912Z,20.58
2018-05-03T17:44:42.787Z,20.60
2018-05-03T17:47:10.451Z,20.49
2018-05-03T17:49:38.112Z,20.38
2018-05-03T17:52:05.979Z,20.36
2018-05-03T17:54:33.829Z,20.08
2018-05-03T17:57:01.568Z,19.91
2018-05-03T17:59:29.374Z,19.79
2018-05-03T18:01:57.101Z,19.76
2018-05-03T18:04:24.800Z,19.68
2018-05-03T18:06:52.671Z,19.60
2018-05-03T18:09:20.534Z,19.56
2018-05-03T18:11:48.243Z,19.59
2018-05-03T18:14:16.064Z,19.41
2018-05-03T18:16:43.828Z,19.47
2018-05-03T18:19:12.412Z,19.28
2018-05-03T18:21:40.279Z,19.28
2018-05-03T18:24:08.155Z,19.18
2018-05-03T18:26:35.910Z,19.13
2018-05-03T18:29:03.675Z,19.05
2018-05-03T18:31:31.441Z,19.05
2018-05-03T18:33:59.166Z,18.73
2018-05-03T18:36:26.907Z,18.99
2018-05-03T18:38:54.674Z,18.85
2018-05-03T18:41:22.395Z,18.87
2018-05-03T18:43:50.267Z,18.84
2018-05-03T18:46:18.130Z,18.72
2018-05-03T18:48:45.840Z,18.53
2018-05-03T18:51:13.660Z,18.62
2018-05-03T18:53:41.629Z,18.37
2018-05-03T18:56:09.494Z,18.38
2018-05-03T18:58:37.157Z,18.24
2018-05-03T19:01:04.985Z,18.13
2018-05-03T19:03:32.779Z,18.14
2018-05-03T19:06:00.550Z,17.95
2018-05-03T19:08:28.310Z,17.80
2018-05-03T19:10:56.082Z,17.78
2018-05-03T19:13:23.754Z,17.59
2018-05-03T19:15:51.506Z,17.69
2018-05-03T19:18:19.218Z,17.63
2018-05-03T19:20:47.108Z,17.64
2018-05-03T19:23:14.803Z,17.61
2018-05-03T19:25:42.571Z,17.36
2018-05-03T19:28:10.434Z,17.48
2018-05-03T19:30:38.151Z,17.36
2018-05-03T19:33:05.960Z,17.21
2018-05-03T19:35:33.652Z,17.25
2018-05-03T19:38:01.595Z,17.06
2018-05-03T19:40:29.461Z,17.05
2018-05-03T19:42:57.245Z,16.93
2018-05-03T19:45:24.989Z,16.93
2018-05-03T19:47:52.643Z,16.62
2018-05-03T19:50:20.253Z,16.80
2018-05-03T19:52:48.039Z,16.69
2018-05-03T19:55:15.915Z,16.56
2018-05-03T19:57:43.707Z,16.49
2018-05-03T20:00:11.439Z,16.45
2018-05-03T20:02:39.193Z,16.47
2018-05-03T20:05:06.903Z,16.39
2018-05-03T20:07:34.660Z,16.29
2018-05-03T20:10:02.530Z,16.10
2018-05-03T20:12:30.231Z,16.07
2018-05-03T20:14:58.059Z,16.11
2018-05-03T20:17:25.928Z,16.05
2018-05-03T20:19:53.867Z,15.96
2018-05-03T20:22:21.761Z,15.84
2018-05-03T20:24:49.540Z,15.85
2018-05-03T20:27:17.301Z,15.85
2018-05-03T20:29:45.237Z,15.71
2018-05-03T20:32:13.338Z,15.75
2018-05-03T20:34:41.287Z,15.65
2018-05-03T20:37:09.279Z,15.62
2018-05-03T20:39:37.297Z,15.53
2018-05-03T20:42:05.187Z,15.45
2018-05-03T20:44:33.082Z,15.48
2018-05-03T20:47:01.052Z,15.40
2018-05-03T20:49:29.091Z,15.41
2018-05-03T20:51:56.990Z,15.32
2018-05-03T20:54:24.949Z,15.34
2018-05-03T20:56:52.827Z,15.36
2018-05-03T20:59:20.692Z,15.22
2018-05-03T21:01:48.491Z,15.22
2018-05-03T21:04:16.429Z,15.19
2018-05-03T21:06:44.352Z,15.22
2018-05-03T21:09:12.263Z,15.08
2018-05-03T21:11:40.237Z,15.01
2018-05-03T21:14:08.207Z,14.95
2018-05-03T21:16:36.172Z,14.94
2018-05-03T21:19:04.038Z,14.93
2018-05-03T21:21:31.904Z,14.88
2018-05-03T21:23:59.773Z,14.87
2018-05-03T21:26:27.682Z,14.80
2018-05-03T21:28:55.498Z,14.78
2018-05-03T21:31:23.263Z,14.77
2018-05-03T21:33:50.981Z,14.70
2018-05-03T21:36:18.746Z,14.63
2018-05-03T21:38:46.457Z,14.41
2018-05-03T21:41:14.219Z,14.51
2018-05-03T21:43:42.086Z,14.50
2018-05-03T21:46:09.853Z,14.43
2018-05-03T21:48:37.818Z,14.53
2018-05-03T21:51:05.649Z,14.69
2018-05-03T21:53:33.451Z,14.64
2018-05-03T21:56:01.180Z,14.70
2018-05-03T21:58:28.979Z,14.66
2018-05-03T22:00:56.841Z,14.70
2018-05-03T22:03:24.714Z,14.62
2018-05-03T22:05:52.369Z,14.51
2018-05-03T22:08:20.139Z,14.58
2018-05-03T22:10:47.977Z,14.60
2018-05-03T22:13:15.670Z,14.65
2018-05-03T22:15:43.387Z,14.27
2018-05-03T22:18:11.197Z,14.26
2018-05-03T22:20:38.847Z,14.39
2018-05-03T22:23:06.454Z,14.22
2018-05-03T22:25:34.179Z,14.34
2018-05-03T22:28:01.950Z,14.36
2018-05-03T22:30:29.816Z,14.29
2018-05-03T22:32:57.477Z,14.27
2018-05-03T22:35:25.345Z,14.33
2018-05-03T22:37:53.000Z,14.35
2018-05-03T22:40:20.874Z,14.11
2018-05-03T22:42:48.605Z,14.13
2018-05-03T22:45:16.402Z,14.11
2018-05-03T22:47:44.063Z,13.78
2018-05-03T22:50:11.822Z,13.91
2018-05-03T22:52:39.699Z,13.85
2018-05-03T22:55:07.665Z,13.86
2018-05-03T22:57:35.430Z,13.87
2018-05-03T23:00:03.188Z,13.82
2018-05-03T23:02:31.033Z,13.80
2018-05-03T23:04:59.033Z,13.79
2018-05-03T23:07:26.736Z,13.75
2018-05-03T23:09:54.478Z,13.67
2018-05-03T23:12:22.221Z,13.66
2018-05-03T23:14:49.985Z,13.65
2018-05-03T23:17:18.774Z,13.61
2018-05-03T23:19:46.539Z,13.57
2018-05-03T23:22:14.308Z,13.49
2018-05-03T23:24:42.026Z,13.48
2018-05-03T23:27:10.653Z,13.50
2018-05-03T23:29:38.310Z,13.39
2018-05-03T23:32:06.130Z,13.45
2018-05-03T23:34:33.942Z,13.42
2018-05-03T23:37:01.709Z,13.40
2018-05-03T23:39:29.474Z,13.31
2018-05-03T23:41:57.291Z,13.21
2018-05-03T23:44:25.105Z,13.31
2018-05-03T23:46:52.971Z,13.29
2018-05-03T23:49:20.737Z,13.23
2018-05-03T23:51:48.501Z,13.14
2018-05-03T23:54:16.267Z,13.08
2018-05-03T23:56:43.989Z,13.15
2018-05-03T23:59:11.795Z,13.18
